Time;durP1;ratioP1;P1;durP2;ratioP2;P2;SDS_P1;SDS_P2;PMS_P1;PMS_P2;Temp;Humidity;BMP_temperature;BMP_pressure;BME280_temperature;BME280_humidity;BME280_pressure;Samples;Min_cycle;Max_cycle;Signal;HPM_P1;HPM_P2
2021/07/25 00:01:13;;;;;;;32.93;25.30;;;17.30;99.90;;;;;;5006107;28;20195;-73
2021/07/25 00:03:38;;;;;;;28.50;21.40;;;17.30;99.90;;;;;;5004333;28;20270;-73
2021/07/25 00:06:04;;;;;;;36.10;23.30;;;17.30;99.90;;;;;;5014555;28;20862;-73
2021/07/25 00:08:30;;;;;;;30.70;23.37;;;17.30;99.90;;;;;;5007373;28;20224;-73
2021/07/25 00:10:56;;;;;;;32.77;21.90;;;17.30;99.90;;;;;;5012141;28;20198;-73
2021/07/25 00:13:22;;;;;;;29.70;22.57;;;17.20;99.90;;;;;;5009131;28;20180;-73
2021/07/25 00:15:48;;;;;;;29.63;22.20;;;17.20;99.90;;;;;;5006358;28;20448;-73
2021/07/25 00:18:13;;;;;;;31.30;22.40;;;17.20;99.90;;;;;;5009968;28;20678;-73
2021/07/25 00:20:39;;;;;;;26.93;20.17;;;17.20;99.90;;;;;;5011801;28;20183;-74
2021/07/25 00:23:05;;;;;;;34.60;22.43;;;17.10;99.90;;;;;;5008553;28;20184;-73
2021/07/25 00:25:33;;;;;;;35.17;21.50;;;17.10;99.90;;;;;;5009872;28;20671;-73
2021/07/25 00:27:58;;;;;;;32.47;20.20;;;17.10;99.90;;;;;;5008905;28;20542;-73
2021/07/25 00:30:25;;;;;;;23.23;18.97;;;17.20;99.90;;;;;;5009259;28;20438;-73
2021/07/25 00:32:52;;;;;;;24.30;18.97;;;17.10;99.90;;;;;;5002241;28;20461;-73
2021/07/25 00:35:18;;;;;;;26.63;20.20;;;17.20;99.90;;;;;;5004159;28;20460;-73
2021/07/25 00:37:47;;;;;;;30.97;21.10;;;17.20;99.90;;;;;;5010109;28;20474;-73
2021/07/25 00:40:31;;;;;;;27.13;19.20;;;17.20;99.90;;;;;;5010280;28;20460;-73
2021/07/25 00:42:56;;;;;;;27.43;19.90;;;17.30;99.90;;;;;;5006588;28;20596;-73
2021/07/25 00:45:22;;;;;;;25.83;18.33;;;17.20;99.90;;;;;;5008114;28;22098;-73
2021/07/25 00:47:48;;;;;;;28.87;18.60;;;17.10;99.90;;;;;;5003670;28;20600;-73
2021/07/25 00:50:14;;;;;;;28.40;19.20;;;17.10;99.90;;;;;;5008722;28;20200;-73
2021/07/25 00:52:40;;;;;;;24.03;17.93;;;17.10;99.90;;;;;;5005098;28;20249;-74
2021/07/25 00:55:07;;;;;;;26.13;20.10;;;17.20;99.90;;;;;;5007849;28;20462;-73
2021/07/25 00:57:32;;;;;;;25.60;17.67;;;17.10;99.90;;;;;;5006272;28;20233;-73
2021/07/25 00:59:58;;;;;;;24.50;18.80;;;17.10;99.90;;;;;;5008393;28;20950;-73
2021/07/25 01:02:28;;;;;;;28.20;19.50;;;17.10;99.90;;;;;;5008918;28;20727;-73
2021/07/25 01:05:11;;;;;;;31.33;19.17;;;17.10;99.90;;;;;;5006361;28;20192;-73
2021/07/25 01:08:07;;;;;;;26.97;20.37;;;17.10;99.90;;;;;;5006807;28;20450;-73
2021/07/25 01:10:33;;;;;;;28.73;20.10;;;17.10;99.90;;;;;;5010164;28;20456;-73
2021/07/25 01:13:11;;;;;;;28.33;19.67;;;17.10;99.90;;;;;;5002806;28;20457;-73
2021/07/25 01:15:40;;;;;;;28.30;21.97;;;17.10;99.90;;;;;;5002214;28;20474;-74
2021/07/25 01:18:06;;;;;;;29.90;23.30;;;17.10;99.90;;;;;;5005132;28;20479;-73
2021/07/25 01:20:32;;;;;;;32.73;22.70;;;17.10;99.90;;;;;;5011570;28;21063;-73
2021/07/25 01:22:59;;;;;;;31.53;23.87;;;17.10;99.90;;;;;;5002164;28;20462;-73
2021/07/25 01:25:26;;;;;;;28.93;21.80;;;17.20;99.90;;;;;;5011531;28;20192;-73
2021/07/25 01:28:10;;;;;;;31.10;23.30;;;17.20;99.90;;;;;;5005927;28;20495;-73
2021/07/25 01:30:41;;;;;;;45.73;23.77;;;17.20;99.90;;;;;;5006423;28;20899;-73
2021/07/25 01:33:12;;;;;;;30.40;23.80;;;17.20;99.90;;;;;;5000793;28;20877;-73
2021/07/25 01:35:40;;;;;;;32.07;23.50;;;17.20;99.90;;;;;;5008129;28;20446;-73
2021/07/25 01:38:09;;;;;;;35.43;24.90;;;17.30;99.90;;;;;;5007072;28;20478;-73
2021/07/25 01:40:35;;;;;;;35.27;24.37;;;17.30;99.90;;;;;;5002538;28;20455;-73
2021/07/25 01:43:01;;;;;;;33.47;23.00;;;17.30;99.90;;;;;;5004363;28;20853;-73
2021/07/25 01:45:27;;;;;;;28.77;22.57;;;17.30;99.90;;;;;;5004988;28;20446;-73
2021/07/25 01:47:53;;;;;;;26.80;21.80;;;17.30;99.90;;;;;;5004230;28;20862;-73
2021/07/25 01:50:18;;;;;;;24.60;20.33;;;17.30;99.90;;;;;;5005698;28;20447;-73
2021/07/25 01:52:44;;;;;;;24.47;20.73;;;17.30;99.90;;;;;;5004266;28;20188;-73
2021/07/25 01:55:11;;;;;;;28.33;22.93;;;17.30;99.90;;;;;;5008280;28;20237;-73
2021/07/25 01:57:37;;;;;;;28.90;23.00;;;17.30;99.90;;;;;;5002069;28;20985;-73
2021/07/25 02:00:07;;;;;;;31.10;23.70;;;17.30;99.90;;;;;;5004521;28;20959;-73
2021/07/25 02:02:33;;;;;;;29.77;22.73;;;17.30;99.90;;;;;;5009168;28;20631;-73
2021/07/25 02:04:59;;;;;;;32.33;22.23;;;17.30;99.90;;;;;;5003365;28;20948;-73
2021/07/25 02:07:24;;;;;;;28.70;23.57;;;17.40;99.90;;;;;;5004947;28;20796;-73
2021/07/25 02:09:50;;;;;;;34.83;25.30;;;17.40;99.90;;;;;;5004470;28;20818;-73
2021/07/25 02:12:16;;;;;;;33.50;23.63;;;17.50;99.90;;;;;;5011164;28;20781;-73
2021/07/25 02:14:41;;;;;;;29.57;23.17;;;17.50;99.90;;;;;;5001377;28;20192;-73
2021/07/25 02:17:08;;;;;;;39.27;23.80;;;17.50;99.90;;;;;;5008442;28;20319;-73
2021/07/25 02:19:34;;;;;;;31.93;23.33;;;17.40;99.90;;;;;;5007403;28;20219;-73
2021/07/25 02:21:59;;;;;;;31.60;23.60;;;17.50;99.90;;;;;;5002093;28;20902;-73
2021/07/25 02:24:25;;;;;;;31.93;23.30;;;17.40;99.90;;;;;;5007743;28;20180;-73
2021/07/25 02:26:52;;;;;;;38.50;24.20;;;17.40;99.90;;;;;;5002202;28;20338;-73
2021/07/25 02:29:19;;;;;;;34.67;23.23;;;17.50;99.90;;;;;;5002981;28;20180;-73
2021/07/25 02:31:45;;;;;;;39.07;26.67;;;17.50;99.90;;;;;;5006587;28;20726;-73
2021/07/25 02:34:10;;;;;;;36.90;26.23;;;17.50;99.90;;;;;;5001089;28;20474;-73
2021/07/25 02:36:37;;;;;;;35.57;26.20;;;17.50;99.90;;;;;;5005685;28;21058;-73
2021/07/25 02:39:03;;;;;;;34.57;26.30;;;17.50;99.90;;;;;;4999529;28;20602;-73
2021/07/25 02:41:29;;;;;;;39.77;26.87;;;17.60;99.90;;;;;;5006429;28;20533;-73
2021/07/25 02:43:55;;;;;;;37.73;26.17;;;17.60;99.90;;;;;;5006421;28;20565;-73
2021/07/25 02:46:20;;;;;;;36.33;26.80;;;17.60;99.90;;;;;;5007019;28;20720;-73
2021/07/25 02:48:46;;;;;;;42.73;27.17;;;17.60;99.90;;;;;;5002286;28;20212;-74
2021/07/25 02:51:12;;;;;;;42.30;26.37;;;17.70;99.90;;;;;;5001492;28;20226;-74
2021/07/25 02:53:37;;;;;;;37.47;26.23;;;17.70;99.90;;;;;;5002648;28;20191;-74
2021/07/25 02:56:03;;;;;;;36.30;26.40;;;17.70;99.90;;;;;;5014044;28;20200;-73
2021/07/25 02:58:28;;;;;;;34.53;23.50;;;17.60;99.90;;;;;;5007788;28;21115;-73
2021/07/25 03:00:54;;;;;;;35.50;23.83;;;17.60;99.90;;;;;;5006538;28;20646;-73
2021/07/25 03:03:20;;;;;;;30.70;23.13;;;17.60;99.90;;;;;;5010003;28;20208;-74
2021/07/25 03:05:45;;;;;;;32.27;24.60;;;17.60;99.90;;;;;;5004568;28;20188;-73
2021/07/25 03:08:11;;;;;;;35.60;25.10;;;17.60;99.90;;;;;;5008770;28;20218;-74
2021/07/25 03:10:39;;;;;;;29.87;24.50;;;17.60;99.90;;;;;;5014951;28;20226;-73
2021/07/25 03:13:04;;;;;;;34.47;24.47;;;17.60;99.90;;;;;;5010640;28;20211;-73
2021/07/25 03:15:30;;;;;;;30.87;24.10;;;17.50;99.90;;;;;;5016233;28;20545;-73
2021/07/25 03:17:56;;;;;;;31.10;21.80;;;17.50;99.90;;;;;;5014954;28;20257;-73
2021/07/25 03:20:21;;;;;;;29.47;21.97;;;17.40;99.90;;;;;;5013931;28;20220;-74
2021/07/25 03:22:47;;;;;;;35.53;23.77;;;17.40;99.90;;;;;;5011022;28;20188;-73
2021/07/25 03:25:13;;;;;;;31.20;22.80;;;17.40;99.90;;;;;;5006563;28;20184;-74
2021/07/25 03:27:39;;;;;;;29.47;22.60;;;17.40;99.90;;;;;;5010928;28;20234;-73
2021/07/25 03:30:05;;;;;;;32.90;23.20;;;17.40;99.90;;;;;;5007891;28;20692;-74
2021/07/25 03:32:31;;;;;;;38.57;24.40;;;17.30;99.90;;;;;;5004398;28;20528;-74
2021/07/25 03:34:57;;;;;;;28.93;22.67;;;17.30;99.90;;;;;;5003221;28;20450;-74
2021/07/25 03:37:23;;;;;;;31.07;23.63;;;17.40;99.90;;;;;;5008234;28;20211;-73
2021/07/25 03:39:52;;;;;;;37.00;22.30;;;17.30;99.90;;;;;;5010967;28;21653;-73
2021/07/25 03:42:18;;;;;;;31.03;23.07;;;17.30;99.90;;;;;;5009377;28;20473;-73
2021/07/25 03:44:43;;;;;;;31.90;25.90;;;17.30;99.90;;;;;;5002761;28;20443;-74
2021/07/25 03:47:11;;;;;;;34.80;25.30;;;17.30;99.90;;;;;;5010956;28;20191;-73
2021/07/25 03:49:41;;;;;;;28.70;23.20;;;17.30;99.90;;;;;;5006979;28;21544;-73
2021/07/25 03:52:09;;;;;;;32.60;21.97;;;17.30;99.90;;;;;;4999308;28;20441;-73
2021/07/25 03:54:38;;;;;;;29.73;22.43;;;17.30;99.90;;;;;;4998998;28;20451;-73
2021/07/25 03:57:04;;;;;;;31.63;23.13;;;17.30;99.90;;;;;;5001153;28;20564;-73
2021/07/25 03:59:30;;;;;;;32.23;23.90;;;17.30;99.90;;;;;;5012877;28;20959;-74
2021/07/25 04:01:56;;;;;;;31.00;23.07;;;17.30;99.90;;;;;;5001380;28;20449;-73
2021/07/25 04:04:21;;;;;;;30.20;22.83;;;17.30;99.90;;;;;;5004643;28;20615;-73
2021/07/25 04:06:47;;;;;;;28.40;22.47;;;17.30;99.90;;;;;;5006339;28;20184;-73
2021/07/25 04:09:12;;;;;;;31.20;22.03;;;17.30;99.90;;;;;;5009032;28;20428;-73
2021/07/25 04:11:38;;;;;;;30.20;21.67;;;17.30;99.90;;;;;;5008757;28;20207;-73
2021/07/25 04:14:04;;;;;;;27.07;20.47;;;17.30;99.90;;;;;;5007929;28;20270;-73
2021/07/25 04:16:29;;;;;;;31.13;21.90;;;17.20;99.90;;;;;;5008087;28;20484;-73
2021/07/25 04:18:55;;;;;;;33.73;22.43;;;17.20;99.90;;;;;;5010315;28;20301;-73
2021/07/25 04:21:20;;;;;;;32.27;23.40;;;17.10;99.90;;;;;;5008280;28;21628;-73
2021/07/25 04:23:46;;;;;;;31.83;23.90;;;17.10;99.90;;;;;;5003533;28;20488;-73
2021/07/25 04:26:12;;;;;;;34.30;23.97;;;17.20;99.90;;;;;;5008345;28;20253;-73
2021/07/25 04:28:38;;;;;;;32.50;24.10;;;17.20;99.90;;;;;;4998341;28;20215;-73
2021/07/25 04:31:05;;;;;;;34.33;25.90;;;17.20;99.90;;;;;;5002445;28;20554;-73
2021/07/25 04:33:32;;;;;;;30.60;22.67;;;17.20;99.90;;;;;;5007425;28;20711;-73
2021/07/25 04:35:58;;;;;;;32.17;23.80;;;17.20;99.90;;;;;;5005863;28;20532;-73
2021/07/25 04:38:24;;;;;;;34.73;22.20;;;17.20;99.90;;;;;;5009116;28;20454;-73
2021/07/25 04:41:12;;;;;;;41.90;24.17;;;17.20;99.90;;;;;;4997990;28;20658;-73
2021/07/25 04:43:39;;;;;;;25.93;22.50;;;17.10;99.90;;;;;;5002069;28;21104;-73
2021/07/25 04:46:08;;;;;;;33.20;21.50;;;17.10;99.90;;;;;;5017196;28;20830;-73
2021/07/25 04:48:48;;;;;;;28.33;21.50;;;17.00;99.90;;;;;;5021959;28;20470;-73
2021/07/25 04:51:16;;;;;;;28.43;20.80;;;17.00;99.90;;;;;;5024111;28;20457;-73
2021/07/25 04:53:42;;;;;;;28.87;20.97;;;17.00;99.90;;;;;;5017875;28;20463;-73
2021/07/25 04:56:13;;;;;;;27.80;19.93;;;17.00;99.90;;;;;;5019025;28;20462;-73
2021/07/25 04:58:51;;;;;;;23.30;18.60;;;17.00;99.90;;;;;;5019704;28;20446;-73
2021/07/25 05:01:27;;;;;;;22.53;18.30;;;16.90;99.90;;;;;;5014809;28;20469;-73
2021/07/25 05:03:53;;;;;;;26.97;19.30;;;16.90;99.90;;;;;;5017818;28;20449;-73
2021/07/25 05:06:21;;;;;;;27.40;19.00;;;16.90;99.90;;;;;;5020053;28;20457;-73
2021/07/25 05:08:47;;;;;;;22.90;17.60;;;16.90;99.90;;;;;;5018505;28;20496;-73
2021/07/25 05:11:26;;;;;;;24.10;17.17;;;16.90;99.90;;;;;;5018723;28;20561;-72
2021/07/25 05:13:56;;;;;;;22.40;17.03;;;16.90;99.90;;;;;;5016881;28;20189;-73
2021/07/25 05:17:06;;;;;;;22.23;17.13;;;16.90;99.90;;;;;;5021991;28;20482;-73
2021/07/25 05:19:55;;;;;;;23.03;15.93;;;16.90;99.90;;;;;;4990798;28;20466;-74
2021/07/25 05:22:55;;;;;;;23.03;17.20;;;16.90;99.90;;;;;;5015434;28;20433;-73
2021/07/25 05:25:22;;;;;;;23.17;16.70;;;17.00;99.90;;;;;;5009864;28;20972;-73
2021/07/25 05:27:50;;;;;;;26.30;16.10;;;17.00;99.90;;;;;;5019744;28;20939;-73
2021/07/25 05:30:19;;;;;;;23.30;15.87;;;17.10;99.90;;;;;;5013853;28;20557;-73
2021/07/25 05:32:45;;;;;;;18.47;14.97;;;17.10;99.90;;;;;;5013629;28;20543;-73
2021/07/25 05:35:12;;;;;;;18.23;14.47;;;17.10;99.90;;;;;;5015067;28;20956;-73
2021/07/25 05:37:38;;;;;;;18.10;14.60;;;17.20;99.90;;;;;;5015600;28;20215;-73
2021/07/25 05:40:06;;;;;;;17.47;13.90;;;17.20;99.90;;;;;;5019802;28;20445;-73
2021/07/25 05:42:32;;;;;;;19.40;15.27;;;17.20;99.90;;;;;;5010971;28;20451;-74
2021/07/25 05:44:57;;;;;;;21.80;14.80;;;17.30;99.90;;;;;;5014863;28;20443;-73
2021/07/25 05:47:23;;;;;;;20.40;14.13;;;17.30;99.90;;;;;;5014947;28;20969;-73
2021/07/25 05:49:49;;;;;;;17.10;13.70;;;17.30;99.90;;;;;;5020372;28;20708;-74
2021/07/25 05:52:15;;;;;;;21.03;14.50;;;17.30;99.90;;;;;;5018415;28;20188;-74
2021/07/25 05:54:41;;;;;;;14.77;12.20;;;17.40;99.90;;;;;;5014024;28;20188;-74
2021/07/25 05:57:07;;;;;;;20.33;13.00;;;17.50;99.90;;;;;;5019655;28;20492;-73
2021/07/25 05:59:34;;;;;;;16.77;11.53;;;17.50;99.90;;;;;;5035365;28;21003;-74
2021/07/25 06:02:03;;;;;;;15.60;12.20;;;17.50;99.90;;;;;;5009907;28;20697;-74
2021/07/25 06:04:29;;;;;;;13.23;11.07;;;17.60;99.90;;;;;;5014162;28;20282;-74
2021/07/25 06:06:56;;;;;;;19.37;12.30;;;17.70;99.90;;;;;;5010570;28;20990;-74
2021/07/25 06:09:22;;;;;;;17.57;13.57;;;17.70;99.90;;;;;;5014110;28;20839;-74
2021/07/25 06:11:48;;;;;;;13.50;10.80;;;17.80;99.90;;;;;;5019439;28;20560;-74
2021/07/25 06:14:14;;;;;;;17.93;9.73;;;17.80;99.90;;;;;;5019468;28;21011;-74
2021/07/25 06:16:39;;;;;;;14.13;10.00;;;17.90;99.90;;;;;;5013968;28;20758;-74
2021/07/25 06:19:05;;;;;;;15.23;10.33;;;18.00;99.90;;;;;;5019243;28;20196;-73
2021/07/25 06:21:31;;;;;;;15.77;8.83;;;18.00;99.90;;;;;;5005899;28;20240;-73
2021/07/25 06:23:56;;;;;;;12.57;9.57;;;18.10;99.90;;;;;;5018194;28;20317;-73
2021/07/25 06:26:26;;;;;;;11.53;8.67;;;18.20;99.90;;;;;;5012116;28;20540;-73
2021/07/25 06:28:52;;;;;;;12.73;8.33;;;18.30;99.90;;;;;;5013176;28;20243;-74
2021/07/25 06:31:18;;;;;;;10.77;7.90;;;18.40;99.90;;;;;;5015996;28;20554;-73
2021/07/25 06:33:43;;;;;;;9.37;7.80;;;18.40;99.90;;;;;;5000901;28;21212;-73
2021/07/25 06:36:12;;;;;;;13.00;7.90;;;18.50;99.90;;;;;;5000877;28;20192;-73
2021/07/25 06:38:39;;;;;;;13.60;8.40;;;18.50;99.90;;;;;;4999162;28;20191;-73
2021/07/25 06:41:06;;;;;;;11.70;7.20;;;18.60;99.90;;;;;;4995326;28;20450;-73
2021/07/25 06:43:32;;;;;;;9.27;7.13;;;18.70;99.90;;;;;;4986742;28;20473;-73
2021/07/25 06:45:58;;;;;;;8.30;6.77;;;18.80;99.90;;;;;;4989310;28;20489;-74
2021/07/25 06:48:26;;;;;;;11.40;5.90;;;18.80;99.90;;;;;;4997935;28;20465;-73
2021/07/25 06:50:54;;;;;;;9.20;6.60;;;18.90;99.90;;;;;;5007595;28;20520;-75
2021/07/25 06:53:21;;;;;;;11.23;5.83;;;19.00;99.90;;;;;;5002317;28;20446;-73
2021/07/25 06:55:52;;;;;;;8.30;6.13;;;19.00;99.90;;;;;;5006680;28;20482;-73
2021/07/25 06:58:19;;;;;;;8.20;5.70;;;19.10;99.90;;;;;;5005925;28;20488;-73
2021/07/25 07:00:45;;;;;;;9.97;5.33;;;19.10;99.90;;;;;;5007647;28;20454;-73
2021/07/25 07:03:11;;;;;;;11.30;6.07;;;19.10;99.90;;;;;;5003474;28;20963;-73
2021/07/25 07:05:37;;;;;;;8.20;6.10;;;19.00;99.90;;;;;;5001321;28;20497;-73
2021/07/25 07:08:05;;;;;;;7.83;5.07;;;19.00;99.90;;;;;;5007282;28;20198;-73
2021/07/25 07:10:36;;;;;;;7.57;4.90;;;19.10;99.90;;;;;;5015309;28;20288;-73
2021/07/25 07:13:04;;;;;;;5.63;4.70;;;19.20;99.90;;;;;;5008012;28;20446;-73
2021/07/25 07:15:31;;;;;;;5.77;4.50;;;19.30;99.90;;;;;;5011000;28;20462;-74
2021/07/25 07:17:58;;;;;;;8.30;5.47;;;19.40;99.90;;;;;;5007839;28;20458;-73
2021/07/25 07:20:25;;;;;;;8.60;5.40;;;19.60;99.90;;;;;;5002568;28;20833;-73
2021/07/25 07:22:54;;;;;;;10.13;5.23;;;19.60;99.90;;;;;;5007981;28;20442;-74
2021/07/25 07:25:21;;;;;;;8.40;5.07;;;19.70;99.90;;;;;;5011482;28;20449;-74
2021/07/25 07:27:47;;;;;;;6.87;4.80;;;19.70;99.90;;;;;;5012320;28;20450;-74
2021/07/25 07:30:13;;;;;;;6.90;4.60;;;19.60;99.90;;;;;;5007880;28;20445;-74
2021/07/25 07:32:39;;;;;;;6.33;4.37;;;19.60;99.90;;;;;;5011321;28;20456;-74
2021/07/25 07:35:05;;;;;;;6.87;3.87;;;19.60;99.90;;;;;;5004481;28;20462;-74
2021/07/25 07:37:30;;;;;;;6.70;4.13;;;19.70;99.90;;;;;;5008228;28;20415;-74
2021/07/25 07:39:56;;;;;;;6.07;4.40;;;19.70;99.90;;;;;;5003157;28;20451;-74
2021/07/25 07:42:22;;;;;;;10.20;3.80;;;19.70;99.90;;;;;;5010367;28;20254;-74
2021/07/25 07:44:48;;;;;;;8.80;4.50;;;19.70;99.90;;;;;;5004914;28;20183;-75
2021/07/25 07:47:14;;;;;;;7.73;4.87;;;19.70;99.90;;;;;;5006790;28;20508;-74
2021/07/25 07:49:40;;;;;;;6.33;4.27;;;19.80;99.90;;;;;;5007839;28;20471;-74
2021/07/25 07:52:06;;;;;;;5.60;4.57;;;19.80;99.90;;;;;;5007885;28;20753;-75
2021/07/25 07:54:32;;;;;;;5.13;3.60;;;20.00;1.00;;;;;;4996367;28;20193;-75
2021/07/25 07:56:58;;;;;;;6.47;4.03;;;20.30;99.90;;;;;;4999512;28;20528;-74
2021/07/25 07:59:24;;;;;;;6.40;4.47;;;20.40;61.70;;;;;;5010808;28;20189;-75
2021/07/25 08:01:51;;;;;;;5.60;4.13;;;20.40;72.40;;;;;;5006979;28;21632;-74
2021/07/25 08:04:17;;;;;;;7.73;3.83;;;20.30;94.80;;;;;;5001684;28;20198;-74
2021/07/25 08:06:42;;;;;;;6.37;4.27;;;20.30;54.60;;;;;;5006470;28;21310;-74
2021/07/25 08:09:08;;;;;;;7.73;4.10;;;20.40;62.50;;;;;;5014279;28;20559;-74
2021/07/25 08:11:34;;;;;;;7.83;5.40;;;20.60;36.00;;;;;;5009288;28;20208;-73
2021/07/25 08:13:59;;;;;;;7.50;5.07;;;20.80;10.40;;;;;;5000433;28;20191;-74
2021/07/25 08:16:25;;;;;;;6.87;4.40;;;21.00;1.00;;;;;;5008203;28;20482;-73
2021/07/25 08:18:51;;;;;;;5.40;3.77;;;21.00;17.20;;;;;;5005347;28;20203;-74
2021/07/25 08:21:17;;;;;;;12.20;4.67;;;21.00;19.20;;;;;;5004335;28;20203;-74
2021/07/25 08:23:43;;;;;;;7.07;4.30;;;21.10;1.00;;;;;;5004143;28;20211;-73
2021/07/25 08:26:08;;;;;;;14.07;5.07;;;21.20;1.00;;;;;;5004472;28;20449;-73
2021/07/25 08:28:34;;;;;;;13.83;5.00;;;21.30;1.00;;;;;;5003911;28;20457;-74
2021/07/25 08:31:00;;;;;;;5.87;4.20;;;21.40;1.00;;;;;;5007381;28;20187;-74
2021/07/25 08:33:26;;;;;;;8.60;4.23;;;21.50;1.00;;;;;;4996504;28;20965;-74
2021/07/25 08:35:51;;;;;;;6.77;4.40;;;21.50;1.00;;;;;;4998661;28;20790;-74
2021/07/25 08:38:17;;;;;;;7.23;3.63;;;21.50;1.00;;;;;;5009961;28;20478;-74
2021/07/25 08:41:11;;;;;;;6.90;4.07;;;21.60;1.00;;;;;;5006874;28;20371;-74
2021/07/25 08:43:43;;;;;;;7.63;4.47;;;21.70;1.00;;;;;;4997619;28;20184;-73
2021/07/25 08:46:16;;;;;;;8.00;3.43;;;21.70;1.00;;;;;;5001991;28;20485;-73
2021/07/25 08:48:52;;;;;;;7.27;4.10;;;21.80;1.00;;;;;;5000106;28;20634;-74
2021/07/25 08:51:23;;;;;;;5.30;3.80;;;21.90;1.00;;;;;;4999153;28;20475;-74
2021/07/25 08:54:01;;;;;;;4.87;4.37;;;22.00;1.00;;;;;;5001120;28;21045;-73
2021/07/25 08:56:32;;;;;;;6.50;3.60;;;22.00;1.00;;;;;;5002360;28;20888;-74
2021/07/25 08:59:00;;;;;;;5.00;3.87;;;22.20;1.00;;;;;;5019147;28;20469;-74
2021/07/25 09:01:36;;;;;;;5.23;4.33;;;22.20;1.00;;;;;;4994315;28;20512;-73
2021/07/25 09:04:03;;;;;;;5.10;3.40;;;22.30;1.00;;;;;;4997085;28;21083;-72
2021/07/25 09:06:39;;;;;;;5.30;4.37;;;22.40;1.00;;;;;;5001324;28;20539;-73
2021/07/25 09:09:05;;;;;;;5.47;4.20;;;22.50;1.00;;;;;;4997806;28;20439;-73
2021/07/25 09:11:31;;;;;;;6.60;3.30;;;22.50;1.00;;;;;;5004506;28;20464;-73
2021/07/25 09:13:58;;;;;;;7.23;4.37;;;22.50;1.00;;;;;;5005369;28;20198;-73
2021/07/25 09:16:29;;;;;;;6.73;3.47;;;22.60;1.00;;;;;;5011484;28;20631;-72
2021/07/25 09:18:55;;;;;;;6.90;4.97;;;22.80;1.00;;;;;;4996357;28;21000;-72
2021/07/25 09:21:45;;;;;;;4.93;3.70;;;22.90;1.00;;;;;;5003990;28;20964;-72
2021/07/25 09:24:28;;;;;;;7.83;3.80;;;23.00;1.00;;;;;;4995310;28;21370;-73
2021/07/25 09:27:01;;;;;;;7.00;4.53;;;22.90;1.00;;;;;;5000326;28;20501;-73
2021/07/25 09:29:37;;;;;;;4.47;3.57;;;23.00;1.00;;;;;;5001631;28;21759;-73
2021/07/25 09:32:15;;;;;;;7.23;3.40;;;23.00;1.00;;;;;;4998696;28;20551;-74
2021/07/25 09:34:42;;;;;;;4.73;4.10;;;23.10;1.00;;;;;;5003602;28;20481;-74
2021/07/25 09:37:12;;;;;;;5.97;3.30;;;23.10;1.00;;;;;;5007245;28;20907;-74
2021/07/25 09:39:51;;;;;;;6.60;3.93;;;23.20;1.00;;;;;;5003019;28;20455;-73
2021/07/25 09:42:27;;;;;;;5.63;3.57;;;23.30;1.00;;;;;;5001901;28;20461;-73
2021/07/25 09:44:55;;;;;;;7.43;4.70;;;23.40;1.00;;;;;;4997903;28;22022;-74
2021/07/25 09:47:39;;;;;;;5.43;4.17;;;23.40;1.00;;;;;;4997261;28;20442;-73
2021/07/25 09:50:06;;;;;;;5.83;4.17;;;23.30;1.00;;;;;;4998198;28;20994;-74
2021/07/25 09:52:36;;;;;;;4.73;3.20;;;23.40;1.00;;;;;;5017135;28;20776;-74
2021/07/25 09:55:07;;;;;;;5.93;3.87;;;23.60;1.00;;;;;;5004651;28;20470;-73
2021/07/25 09:57:35;;;;;;;4.60;3.43;;;23.70;1.00;;;;;;4999042;28;20474;-73
2021/07/25 10:00:11;;;;;;;6.47;3.33;;;23.70;1.00;;;;;;5002405;28;20542;-73
2021/07/25 10:02:45;;;;;;;5.17;3.50;;;23.70;1.00;;;;;;5008439;28;20575;-74
2021/07/25 10:05:12;;;;;;;4.00;3.10;;;24.00;1.00;;;;;;5004133;28;20481;-74
2021/07/25 10:07:39;;;;;;;4.13;3.20;;;24.00;1.00;;;;;;5013493;28;20479;-74
2021/07/25 10:10:06;;;;;;;4.93;3.37;;;24.30;1.00;;;;;;5006790;28;20477;-73
2021/07/25 10:12:33;;;;;;;5.53;3.60;;;24.30;1.00;;;;;;5000434;28;20969;-74
2021/07/25 10:15:00;;;;;;;4.83;3.60;;;24.30;1.00;;;;;;5002365;28;20442;-74
2021/07/25 10:17:27;;;;;;;5.40;3.30;;;24.40;1.00;;;;;;5001759;28;20625;-74
2021/07/25 10:19:54;;;;;;;4.13;2.93;;;24.40;1.00;;;;;;5001082;28;20465;-73
2021/07/25 10:22:22;;;;;;;4.40;2.80;;;24.50;1.00;;;;;;4998310;28;20450;-73
2021/07/25 10:24:51;;;;;;;4.03;2.97;;;24.50;1.00;;;;;;5000544;28;20534;-74
2021/07/25 10:27:17;;;;;;;7.63;3.30;;;24.50;1.00;;;;;;5021431;28;20507;-74
2021/07/25 10:29:44;;;;;;;4.03;3.07;;;24.70;1.00;;;;;;5022609;28;20454;-74
2021/07/25 10:32:11;;;;;;;5.90;3.00;;;24.60;1.00;;;;;;5017048;28;20450;-74
2021/07/25 10:34:38;;;;;;;5.67;3.00;;;24.60;1.00;;;;;;5022525;28;21052;-74
2021/07/25 10:37:04;;;;;;;4.13;3.00;;;24.60;1.00;;;;;;5022941;28;20916;-74
2021/07/25 10:39:31;;;;;;;6.77;3.03;;;24.70;1.00;;;;;;5019796;28;20450;-74
2021/07/25 10:41:59;;;;;;;6.93;2.87;;;24.90;1.00;;;;;;5011340;28;21068;-74
2021/07/25 10:44:25;;;;;;;8.77;4.03;;;25.00;1.00;;;;;;5014446;28;20848;-75
2021/07/25 10:47:18;;;;;;;7.70;3.37;;;25.00;1.00;;;;;;5014824;28;20442;-74
2021/07/25 10:49:44;;;;;;;4.30;3.27;;;25.00;1.00;;;;;;5018648;28;20216;-74
2021/07/25 10:52:09;;;;;;;4.43;2.70;;;24.90;1.00;;;;;;5022975;28;20800;-74
2021/07/25 10:54:46;;;;;;;3.37;2.43;;;24.90;1.00;;;;;;5016458;28;20199;-74
2021/07/25 10:57:11;;;;;;;6.17;3.17;;;25.10;1.00;;;;;;5025683;28;20199;-74
2021/07/25 10:59:52;;;;;;;3.50;2.73;;;25.10;1.00;;;;;;5020325;28;20457;-75
2021/07/25 11:02:21;;;;;;;4.33;2.80;;;25.20;1.00;;;;;;5009155;28;20274;-74
2021/07/25 11:04:56;;;;;;;7.43;3.20;;;25.60;1.00;;;;;;5014650;28;20511;-74
2021/07/25 11:07:24;;;;;;;5.00;3.60;;;25.70;1.00;;;;;;5019938;28;20448;-74
2021/07/25 11:10:02;;;;;;;10.03;3.30;;;25.60;1.00;;;;;;5013193;28;20442;-74
2021/07/25 11:12:55;;;;;;;9.13;2.90;;;25.30;1.00;;;;;;5021968;28;20477;-74
2021/07/25 11:15:32;;;;;;;3.63;2.80;;;24.90;1.00;;;;;;5019189;28;20991;-74
2021/07/25 11:18:06;;;;;;;5.80;2.80;;;24.60;1.00;;;;;;5017639;28;20473;-74
2021/07/25 11:20:34;;;;;;;7.13;3.50;;;24.20;1.00;;;;;;5018397;28;20472;-74
2021/07/25 11:23:01;;;;;;;4.30;2.97;;;24.00;1.00;;;;;;5016512;28;20447;-74
2021/07/25 11:25:37;;;;;;;4.97;3.47;;;23.90;1.00;;;;;;5020171;28;20442;-74
2021/07/25 11:28:04;;;;;;;8.60;3.33;;;23.80;1.00;;;;;;5025924;28;20887;-74
2021/07/25 11:30:48;;;;;;;4.10;3.30;;;23.80;1.00;;;;;;5021435;28;20455;-74
2021/07/25 11:33:45;;;;;;;6.80;3.30;;;23.80;1.00;;;;;;5023189;28;20515;-74
2021/07/25 11:36:14;;;;;;;3.83;2.87;;;23.90;1.00;;;;;;5015566;28;20564;-74
2021/07/25 11:38:41;;;;;;;5.90;3.37;;;24.00;1.00;;;;;;5021101;28;20992;-74
2021/07/25 11:41:09;;;;;;;6.30;3.33;;;24.10;1.00;;;;;;5017026;28;20446;-74
2021/07/25 11:43:54;;;;;;;4.30;3.07;;;24.20;1.00;;;;;;5015722;28;21018;-74
2021/07/25 11:46:30;;;;;;;4.00;3.13;;;24.40;1.00;;;;;;5018778;28;20484;-74
2021/07/25 11:49:04;;;;;;;5.87;3.03;;;24.60;1.00;;;;;;5022329;28;20565;-74
2021/07/25 11:51:30;;;;;;;8.30;2.77;;;24.40;1.00;;;;;;5021214;28;20473;-73
2021/07/25 11:53:56;;;;;;;5.57;2.70;;;24.30;1.00;;;;;;5013887;28;20508;-73
2021/07/25 11:56:21;;;;;;;6.03;3.50;;;24.60;1.00;;;;;;5021551;28;21124;-73
2021/07/25 11:59:01;;;;;;;4.40;2.77;;;25.00;1.00;;;;;;5021368;28;20191;-74
2021/07/25 12:01:26;;;;;;;3.50;2.33;;;25.20;1.00;;;;;;5023247;28;20193;-75
2021/07/25 12:03:52;;;;;;;5.60;2.70;;;25.30;1.00;;;;;;5024444;28;20819;-74
2021/07/25 12:06:18;;;;;;;5.77;2.70;;;25.50;1.00;;;;;;5021476;28;20234;-74
2021/07/25 12:09:06;;;;;;;3.50;2.60;;;25.60;1.00;;;;;;5017423;28;20194;-74
2021/07/25 12:11:32;;;;;;;4.07;2.50;;;25.70;1.00;;;;;;5017267;28;20295;-73
2021/07/25 12:13:58;;;;;;;5.33;2.50;;;25.70;1.00;;;;;;5019414;28;20453;-73
2021/07/25 12:16:24;;;;;;;4.67;2.10;;;25.70;1.00;;;;;;5025747;28;20457;-73
2021/07/25 12:18:49;;;;;;;3.47;2.27;;;25.70;1.00;;;;;;5023555;28;20253;-74
2021/07/25 12:21:36;;;;;;;3.53;2.20;;;25.60;1.00;;;;;;5016807;28;20207;-74
2021/07/25 12:24:02;;;;;;;3.70;2.50;;;25.80;1.00;;;;;;5023050;28;20171;-74
2021/07/25 12:26:41;;;;;;;2.80;1.90;;;25.90;1.00;;;;;;5034681;28;20449;-75
2021/07/25 12:29:35;;;;;;;6.73;2.70;;;26.10;1.00;;;;;;5021828;28;20175;-74
2021/07/25 12:32:24;;;;;;;4.10;2.20;;;25.80;1.00;;;;;;5022021;28;20443;-73
2021/07/25 12:34:51;;;;;;;5.70;2.73;;;25.60;1.00;;;;;;5016773;28;20492;-74
2021/07/25 12:37:32;;;;;;;4.50;2.67;;;25.80;1.00;;;;;;5023410;28;21401;-75
2021/07/25 12:40:10;;;;;;;3.30;2.63;;;26.10;1.00;;;;;;5019995;28;20500;-74
2021/07/25 12:42:45;;;;;;;4.50;2.30;;;26.20;1.00;;;;;;5017147;28;22259;-75
2021/07/25 12:45:32;;;;;;;5.90;2.90;;;26.00;1.00;;;;;;5016436;28;21092;-74
2021/07/25 12:48:23;;;;;;;6.83;2.40;;;25.60;1.00;;;;;;5021520;28;20445;-75
2021/07/25 12:53:47;;;;;;;3.60;2.40;;;25.20;1.00;;;;;;5018272;28;20551;-74